Accueil
METAR-TAF:

METAR-TAF

Aéroports :

Paganella, Italie

latitude: 46-09N, longitude: 011-02E, altitude: 2125 m

Observation

Le bulletin a été fait il y a 1 heure et 7 minutes, à 09:55 UTC
Vent 20 kt de sud/sud-ouest avec des rafales jusqu'à 43 kt
Température 0°C
Humidité 93%
Pression 1010 hPa
Visibilité inférieure à 50 m
neige faible, brouillard givrant

METAR: LIVP 250955Z 20020G43KT 0000 -SN FZFG VV/// M00/M01 Q1010 RMK MON INVIS VAL INVIS VIS MIN 0000

Heure: 12:02 (11:02 UTC)


TAF: absent

Observations et prévisions météorologiques de plus de 4000 aéroports (messages METAR et TAF).

Les stations disponibles sont représentées par des disques jaunes et rouges sur la carte.

Passer la souris dessus pour voir le nom de la station.

Cliquer dessus pour voir les observations et prévisions météorologiques.

Pour changer de carte: cliquez sur les boutons verts avec une croix noire pour zoomer, sur le bouton vert avec un tiret pour effectuer un zoom arrière, ou sur les flèches vertes pour les cartes adjacentes.


METAR-TAF: